Melrose, Ohio
Current Conditions -  °F | °C
As of 3:53 PM on Sunday 23 Nov 2014 (Local Time) from KDFI Reporting Station
Moderate Rain Moderate Rain  
Wind Chill: 55°   Ceiling: 3000
Heat Index: 55°   Visibility: 5mi
Dew Point: 49°   Wind: 6mph
Humidity: 80%   Direction: 110°ESE
Pressure: 29.65"   Gusts: NA
Location:  41.09°N, 84.42°W
Report Text: KDFI 232053Z AUTO 11005KT 5SM RA BKN030 OVC036 13/09 A2965 RMK AO2 RAB06 SLP040 P0006 60006 T01280094 56046
Loading
Personal Weather Stations






























Interactive Weather Map New forecast layout! Learn more

10-Day Weather Forecast

Advertisements
Track Severe Weather on mobile